createdAt,value
2022-08-23T00:02:23.590Z,101036.75
2022-08-23T00:07:25.770Z,101032.63
2022-08-23T00:12:31.493Z,101035.50
2022-08-23T00:17:34.541Z,101017.97
2022-08-23T00:22:36.858Z,101014.63
2022-08-23T00:27:38.585Z,101012.94
2022-08-23T00:32:40.332Z,101010.50
2022-08-23T00:37:42.158Z,101001.06
2022-08-23T00:43:10.139Z,101004.72
2022-08-23T00:48:11.795Z,101006.63
2022-08-23T00:53:18.080Z,101009.47
2022-08-23T00:58:20.033Z,101021.09
2022-08-23T01:03:22.587Z,101021.19
2022-08-23T01:08:25.783Z,101021.19
2022-08-23T01:13:32.923Z,101024.69
2022-08-23T01:18:34.564Z,101032.66
2022-08-23T01:23:41.866Z,101022.22
2022-08-23T01:28:45.784Z,101030.22
2022-08-23T01:33:59.968Z,101025.09
2022-08-23T01:39:02.547Z,101030.50
2022-08-23T01:44:09.073Z,101031.38
2022-08-23T01:49:12.285Z,101026.19
2022-08-23T01:54:14.072Z,101027.06
2022-08-23T01:59:16.274Z,101017.50
2022-08-23T02:04:22.475Z,101020.22
2022-08-23T02:09:25.759Z,101025.81
2022-08-23T02:14:30.350Z,101031.94
2022-08-23T02:19:35.438Z,101032.78
2022-08-23T02:24:42.417Z,101039.84
2022-08-23T02:29:44.985Z,101033.84
2022-08-23T02:34:51.006Z,101037.38
2022-08-23T02:40:01.671Z,101034.75
2022-08-23T02:45:04.623Z,101037.47
2022-08-23T02:50:08.683Z,101035.78
2022-08-23T02:55:10.758Z,101045.47
2022-08-23T03:00:12.871Z,101039.41
2022-08-23T03:05:15.383Z,101052.69
2022-08-23T03:10:17.181Z,101047.38
2022-08-23T03:15:25.420Z,101055.38
2022-08-23T03:20:28.409Z,101061.63
2022-08-23T03:25:30.582Z,101067.91
2022-08-23T03:30:40.557Z,101073.25
2022-08-23T03:35:43.575Z,101083.81
2022-08-23T03:40:47.311Z,101084.72
2022-08-23T03:45:49.312Z,101069.88
2022-08-23T03:50:51.395Z,101073.44
2022-08-23T03:55:56.462Z,101076.09
2022-08-23T04:00:58.835Z,101082.38
2022-08-23T04:06:00.605Z,101079.88
2022-08-23T04:11:03.213Z,101079.91
2022-08-23T04:16:05.267Z,101092.25
2022-08-23T04:21:12.707Z,101088.75
2022-08-23T04:26:14.413Z,101092.25
2022-08-23T04:31:18.407Z,101097.56
2022-08-23T04:36:23.541Z,101098.41
2022-08-23T04:41:44.634Z,101106.31
2022-08-23T04:46:47.198Z,101108.97
2022-08-23T04:51:52.975Z,101118.63
2022-08-23T04:56:56.618Z,101130.03
2022-08-23T05:01:58.442Z,101123.84
2022-08-23T05:07:00.173Z,101135.16
2022-08-23T05:12:01.929Z,101133.28
2022-08-23T05:17:05.444Z,101133.31
2022-08-23T05:22:10.343Z,101144.75
2022-08-23T05:27:36.821Z,101142.16
2022-08-23T05:32:39.109Z,101146.53
2022-08-23T05:37:43.204Z,101147.44
2022-08-23T05:42:45.385Z,101152.63
2022-08-23T05:47:47.134Z,101152.50
2022-08-23T05:53:11.837Z,101147.13
2022-08-23T05:58:14.874Z,101150.50
2022-08-23T06:03:16.635Z,101148.63
2022-08-23T06:08:18.335Z,101163.44
2022-08-23T06:13:20.332Z,101171.22
2022-08-23T06:18:22.202Z,101178.97
2022-08-23T06:23:28.901Z,101173.44
2022-08-23T06:28:30.682Z,101183.75
2022-08-23T06:33:32.470Z,101178.31
2022-08-23T06:38:59.627Z,101185.88
2022-08-23T06:44:21.270Z,101190.03
2022-08-23T06:49:30.953Z,101196.03
2022-08-23T06:54:33.933Z,101191.19
2022-08-23T06:59:57.064Z,101185.53
2022-08-23T07:05:19.363Z,101184.34
2022-08-23T07:10:40.875Z,101184.16
2022-08-23T07:15:42.564Z,101185.63
2022-08-23T07:20:45.677Z,101188.09
2022-08-23T07:25:47.468Z,101194.63
2022-08-23T07:30:52.723Z,101189.94
2022-08-23T07:35:54.639Z,101196.66
2022-08-23T07:40:58.716Z,101195.59
2022-08-23T07:46:01.019Z,101208.56
2022-08-23T07:51:04.571Z,101204.69
2022-08-23T07:56:08.021Z,101208.72
2022-08-23T08:01:48.268Z,101207.56
2022-08-23T08:07:10.420Z,101199.34
2022-08-23T08:12:17.695Z,101208.44
2022-08-23T08:17:27.270Z,101207.06
2022-08-23T08:22:51.005Z,101208.53
2022-08-23T08:28:15.183Z,101209.84
2022-08-23T08:33:17.729Z,101204.88
2022-08-23T08:38:22.184Z,101205.25
2022-08-23T08:44:05.493Z,101205.88
2022-08-23T08:49:07.882Z,101196.78
2022-08-23T08:54:10.292Z,101189.22
2022-08-23T08:59:23.579Z,101195.81
2022-08-23T09:04:25.726Z,101203.41
2022-08-23T09:09:50.951Z,101211.91
2022-08-23T09:15:17.467Z,101203.88
2022-08-23T09:20:21.428Z,101197.19
2022-08-23T09:25:25.595Z,101196.03
2022-08-23T09:30:48.660Z,101197.63
2022-08-23T09:36:12.561Z,101205.94
2022-08-23T09:41:19.302Z,101198.59
2022-08-23T09:46:30.354Z,101185.78
2022-08-23T09:51:37.780Z,101174.19
2022-08-23T09:56:47.317Z,101175.50
2022-08-23T10:01:50.693Z,101189.44
2022-08-23T10:06:52.888Z,101175.97
2022-08-23T10:11:57.171Z,101170.16
2022-08-23T10:17:15.748Z,101176.19
2022-08-23T10:22:26.236Z,101171.78
2022-08-23T10:28:39.488Z,101172.16
2022-08-23T10:34:00.790Z,101167.44
2022-08-23T10:39:06.279Z,101159.69
2022-08-23T10:44:25.960Z,101155.75
2022-08-23T10:49:29.505Z,101150.81
2022-08-23T10:54:46.843Z,101150.63
2022-08-23T10:59:52.312Z,101151.47
2022-08-23T11:05:17.171Z,101152.94
2022-08-23T11:10:37.543Z,101138.97
2022-08-23T11:15:58.428Z,101135.72
2022-08-23T11:21:05.608Z,101143.56
2022-08-23T11:26:40.057Z,101145.94
2022-08-23T11:31:50.718Z,101137.75
2022-08-23T11:37:18.362Z,101140.28
2022-08-23T11:42:20.847Z,101134.00
2022-08-23T11:47:39.046Z,101136.22
2022-08-23T11:53:19.381Z,101127.91
2022-08-23T11:58:23.419Z,101125.31
2022-08-23T12:03:47.574Z,101117.13
2022-08-23T12:09:02.015Z,101111.25
2022-08-23T12:14:32.380Z,101111.31
2022-08-23T12:19:42.825Z,101106.53
2022-08-23T12:24:52.663Z,101105.75
2022-08-23T12:30:18.260Z,101107.16
2022-08-23T12:35:25.823Z,101102.59
2022-08-23T12:40:45.255Z,101102.78
2022-08-23T12:45:50.260Z,101098.28
2022-08-23T12:50:57.729Z,101093.44
2022-08-23T12:56:07.620Z,101097.13
2022-08-23T13:01:21.565Z,101092.78
2022-08-23T13:06:25.809Z,101083.94
2022-08-23T13:11:29.433Z,101075.63
2022-08-23T13:16:37.058Z,101082.81
2022-08-23T13:21:39.925Z,101070.41
2022-08-23T13:26:42.528Z,101077.88
2022-08-23T13:32:04.283Z,101070.63
2022-08-23T13:37:28.114Z,101070.13
2022-08-23T13:42:34.041Z,101069.63
2022-08-23T13:47:37.170Z,101069.63
2022-08-23T13:53:10.076Z,101063.50
2022-08-23T13:58:01.331Z,101065.00
2022-08-23T14:03:03.233Z,101066.81
2022-08-23T14:08:05.069Z,101058.84
2022-08-23T14:13:08.102Z,101068.72
2022-08-23T14:18:09.900Z,101054.59
2022-08-23T14:23:12.127Z,101050.44
2022-08-23T14:28:14.255Z,101049.09
2022-08-23T14:33:15.905Z,101042.75
2022-08-23T14:38:18.339Z,101036.94
2022-08-23T14:43:21.492Z,101033.38
2022-08-23T14:48:23.584Z,101032.84
2022-08-23T14:53:29.804Z,101022.25
2022-08-23T14:58:31.490Z,101029.44
2022-08-23T15:03:33.194Z,101027.56
2022-08-23T15:08:34.925Z,101039.38
2022-08-23T15:13:43.712Z,101034.91
2022-08-23T15:18:57.392Z,101040.28
2022-08-23T15:23:59.064Z,101018.34
2022-08-23T15:29:00.710Z,101019.84
2022-08-23T15:34:02.388Z,101024.63
2022-08-23T15:39:04.106Z,101023.19
2022-08-23T15:44:05.785Z,101024.38
2022-08-23T15:49:12.678Z,101028.25
2022-08-23T15:54:14.346Z,101022.53
2022-08-23T15:59:16.922Z,101035.53
2022-08-23T16:04:18.627Z,101022.53
2022-08-23T16:09:22.511Z,101022.88
2022-08-23T16:14:24.200Z,101026.03
2022-08-23T16:19:26.498Z,101022.41
2022-08-23T16:24:29.349Z,101025.34
2022-08-23T16:29:33.345Z,101018.44
2022-08-23T16:34:35.031Z,101019.47
2022-08-23T16:39:36.960Z,101011.78
2022-08-23T16:44:38.697Z,101025.72
2022-08-23T16:49:43.439Z,101034.31
2022-08-23T16:54:45.092Z,101040.28
2022-08-23T16:59:47.052Z,101042.78
2022-08-23T17:04:52.513Z,101030.03
2022-08-23T17:09:54.389Z,101034.25
2022-08-23T17:14:57.250Z,101039.25
2022-08-23T17:19:58.912Z,101038.84
2022-08-23T17:25:00.628Z,101044.56
2022-08-23T17:30:05.981Z,101047.56
2022-08-23T17:35:14.633Z,101060.81
2022-08-23T17:40:21.255Z,101064.19
2022-08-23T17:45:23.318Z,101064.56
2022-08-23T17:50:25.329Z,101068.09
2022-08-23T17:55:26.995Z,101072.47
2022-08-23T18:00:33.206Z,101079.88
2022-08-23T18:05:35.036Z,101075.56
2022-08-23T18:10:36.722Z,101080.75
2022-08-23T18:15:38.552Z,101091.72
2022-08-23T18:20:40.250Z,101092.59
2022-08-23T18:25:44.124Z,101103.53
2022-08-23T18:30:49.722Z,101104.56
2022-08-23T18:35:51.735Z,101111.50
2022-08-23T18:40:53.416Z,101122.94
2022-08-23T18:45:55.558Z,101126.94
2022-08-23T18:50:57.897Z,101131.94
2022-08-23T18:55:59.589Z,101140.91
2022-08-23T19:01:06.255Z,101147.34
2022-08-23T19:06:08.300Z,101148.50
2022-08-23T19:11:10.503Z,101147.25
2022-08-23T19:16:13.224Z,101156.44
2022-08-23T19:21:18.190Z,101170.34
2022-08-23T19:26:22.055Z,101173.56
2022-08-23T19:31:25.149Z,101183.56
2022-08-23T19:36:45.343Z,101184.63
2022-08-23T19:41:48.617Z,101192.84
2022-08-23T19:46:50.318Z,101194.69
2022-08-23T19:51:51.982Z,101197.34
2022-08-23T19:56:57.348Z,101199.97
2022-08-23T20:01:59.281Z,101202.53
2022-08-23T20:07:01.093Z,101207.53
2022-08-23T20:12:03.310Z,101217.16
2022-08-23T20:17:07.291Z,101217.06
2022-08-23T20:22:27.480Z,101215.06
2022-08-23T20:27:30.765Z,101219.22
2022-08-23T20:32:32.902Z,101221.56
2022-08-23T20:37:34.839Z,101222.97
2022-08-23T20:42:37.783Z,101225.28
2022-08-23T20:47:41.184Z,101226.56
2022-08-23T20:52:43.107Z,101226.09
2022-08-23T20:57:44.770Z,101224.75
2022-08-23T21:02:46.471Z,101229.56
2022-08-23T21:07:48.188Z,101234.56
2022-08-23T21:12:49.871Z,101245.47
2022-08-23T21:17:51.530Z,101234.34
2022-08-23T21:22:53.378Z,101232.00
2022-08-23T21:27:55.055Z,101239.38
2022-08-23T21:32:56.719Z,101237.84
2022-08-23T21:37:58.447Z,101237.19
2022-08-23T21:43:00.107Z,101240.09
2022-08-23T21:48:01.787Z,101239.56
2022-08-23T21:53:03.789Z,101233.72
2022-08-23T21:58:05.784Z,101233.28
2022-08-23T22:03:07.552Z,101238.00
2022-08-23T22:08:09.303Z,101235.69
2022-08-23T22:13:13.514Z,101232.25
2022-08-23T22:18:15.203Z,101235.19
2022-08-23T22:23:17.293Z,101228.31
2022-08-23T22:28:18.959Z,101240.09
2022-08-23T22:33:20.649Z,101248.41
2022-08-23T22:38:22.320Z,101247.88
2022-08-23T22:43:24.238Z,101243.56
2022-08-23T22:48:26.437Z,101235.59
2022-08-23T22:53:28.116Z,101238.53
2022-08-23T22:58:29.829Z,101245.84
2022-08-23T23:03:31.694Z,101244.34
2022-08-23T23:08:33.358Z,101240.09
2022-08-23T23:13:35.362Z,101240.00
2022-08-23T23:18:37.280Z,101241.94
2022-08-23T23:23:38.964Z,101243.69
2022-08-23T23:28:40.625Z,101243.78
2022-08-23T23:33:42.293Z,101254.63
2022-08-23T23:38:43.948Z,101256.50
2022-08-23T23:43:45.839Z,101253.25
2022-08-23T23:48:48.045Z,101260.44
2022-08-23T23:53:50.499Z,101258.94
2022-08-23T23:58:52.226Z,101252.00
